Time;durP1;ratioP1;P1;durP2;ratioP2;P2;SDS_P1;SDS_P2;PMS_P1;PMS_P2;Temp;Humidity;BMP_temperature;BMP_pressure;BME280_temperature;BME280_humidity;BME280_pressure;Samples;Min_cycle;Max_cycle;Signal;HPM_P1;HPM_P2
2022/08/10 00:01:24;;;;;;;9.25;5.18;;;18.10;99.90;;;;;;5094030;28;20400;-74
2022/08/10 00:03:50;;;;;;;9.27;6.22;;;18.00;99.90;;;;;;5093194;28;20056;-73
2022/08/10 00:06:16;;;;;;;9.13;5.43;;;18.00;99.90;;;;;;5093024;28;20047;-73
2022/08/10 00:08:42;;;;;;;10.07;5.70;;;18.20;99.90;;;;;;5093843;28;20112;-74
2022/08/10 00:11:07;;;;;;;8.15;6.13;;;18.00;99.90;;;;;;5094001;28;20044;-73
2022/08/10 00:13:33;;;;;;;8.18;6.32;;;17.80;99.90;;;;;;5075747;28;20495;-74
2022/08/10 00:15:59;;;;;;;10.85;6.90;;;17.90;99.90;;;;;;5093817;28;20088;-74
2022/08/10 00:18:25;;;;;;;9.88;6.70;;;17.90;99.90;;;;;;5093791;28;20070;-73
2022/08/10 00:20:51;;;;;;;8.43;6.50;;;18.20;99.90;;;;;;5075544;28;20104;-73
2022/08/10 00:23:17;;;;;;;9.48;6.75;;;17.90;99.90;;;;;;5093371;28;20539;-74
2022/08/10 00:25:43;;;;;;;10.95;6.85;;;18.00;99.90;;;;;;5075217;28;20150;-73
2022/08/10 00:28:09;;;;;;;11.45;8.07;;;17.90;99.90;;;;;;5075363;28;20083;-74
2022/08/10 00:30:35;;;;;;;11.00;7.88;;;17.80;99.90;;;;;;5108087;28;20087;-74
2022/08/10 00:33:00;;;;;;;11.07;8.00;;;17.80;99.90;;;;;;5075222;28;20083;-74
2022/08/10 00:35:26;;;;;;;10.80;7.90;;;17.80;99.90;;;;;;5074958;28;20480;-74
2022/08/10 00:37:51;;;;;;;12.57;8.77;;;17.80;99.90;;;;;;5093364;28;20036;-73
2022/08/10 00:40:17;;;;;;;11.90;8.98;;;17.70;99.90;;;;;;5093277;28;20060;-74
2022/08/10 00:42:43;;;;;;;11.80;8.75;;;17.70;99.90;;;;;;5093114;28;20040;-74
2022/08/10 00:45:09;;;;;;;13.68;9.77;;;17.80;99.90;;;;;;5093461;28;20063;-73
2022/08/10 00:47:35;;;;;;;12.60;8.98;;;17.70;99.90;;;;;;5090366;28;20055;-73
2022/08/10 00:50:02;;;;;;;14.48;9.45;;;17.70;99.90;;;;;;5093291;28;20400;-74
2022/08/10 00:52:30;;;;;;;11.57;8.80;;;17.70;99.90;;;;;;5093096;28;20114;-74
2022/08/10 00:54:56;;;;;;;11.75;8.75;;;17.70;99.90;;;;;;5108643;28;20389;-74
2022/08/10 00:57:24;;;;;;;12.00;8.77;;;17.60;99.90;;;;;;5092041;28;20044;-73
2022/08/10 00:59:50;;;;;;;11.50;9.02;;;17.60;99.90;;;;;;5093268;28;20047;-74
2022/08/10 01:02:15;;;;;;;11.40;8.88;;;17.60;99.90;;;;;;5092988;28;20059;-74
2022/08/10 01:04:41;;;;;;;11.93;8.60;;;17.60;99.90;;;;;;5092028;28;20036;-74
2022/08/10 01:07:30;;;;;;;12.00;9.18;;;17.60;99.90;;;;;;5092908;28;20047;-74
2022/08/10 01:10:02;;;;;;;14.35;9.10;;;17.60;99.90;;;;;;5093464;28;20392;-73
2022/08/10 01:12:38;;;;;;;14.20;8.50;;;17.60;99.90;;;;;;5093026;28;20391;-74
2022/08/10 01:15:19;;;;;;;12.75;9.20;;;17.60;99.90;;;;;;5074991;28;20400;-74
2022/08/10 01:17:50;;;;;;;10.98;8.02;;;17.60;99.90;;;;;;5093051;28;20040;-73
2022/08/10 01:20:40;;;;;;;11.15;8.63;;;17.60;99.90;;;;;;5092858;28;20122;-74
2022/08/10 01:23:26;;;;;;;12.25;8.48;;;17.50;99.90;;;;;;5074883;28;20489;-74
2022/08/10 01:26:10;;;;;;;11.73;8.45;;;17.50;99.90;;;;;;5092898;28;20044;-74
2022/08/10 01:28:42;;;;;;;11.50;8.40;;;17.50;99.90;;;;;;5092708;28;20388;-74
2022/08/10 01:31:13;;;;;;;15.23;9.75;;;17.50;99.90;;;;;;5092452;28;20506;-74
2022/08/10 01:33:52;;;;;;;10.52;8.48;;;17.50;99.90;;;;;;5092674;28;20059;-74
2022/08/10 01:36:23;;;;;;;12.85;9.23;;;17.50;99.90;;;;;;5092622;28;20048;-74
2022/08/10 01:38:51;;;;;;;13.70;8.90;;;17.60;99.90;;;;;;5092688;28;20052;-74
2022/08/10 01:41:22;;;;;;;13.18;8.68;;;17.50;99.90;;;;;;5108233;28;20090;-74
2022/08/10 01:44:26;;;;;;;12.50;8.68;;;17.50;99.90;;;;;;5092707;28;20039;-73
2022/08/10 01:48:27;;;;;;;10.40;8.45;;;17.50;99.90;;;;;;5010369;28;20046;-73
2022/08/10 01:49:47;;;;;;;10.48;8.35;;;17.50;99.90;;;;;;5090605;28;20056;-74
2022/08/10 01:52:17;;;;;;;14.40;9.20;;;17.40;99.90;;;;;;5092662;28;20044;-74
2022/08/10 01:54:44;;;;;;;12.38;8.60;;;17.50;99.90;;;;;;5092567;28;20130;-74
2022/08/10 01:57:12;;;;;;;12.20;8.63;;;17.40;99.90;;;;;;5092474;28;20044;-73
2022/08/10 01:59:40;;;;;;;12.48;9.55;;;17.40;99.90;;;;;;5092530;28;20044;-73
2022/08/10 02:02:09;;;;;;;14.20;9.40;;;17.40;99.90;;;;;;5074119;28;20523;-74
2022/08/10 02:04:38;;;;;;;14.57;9.57;;;17.40;99.90;;;;;;5074458;28;20468;-74
2022/08/10 02:07:07;;;;;;;12.10;8.65;;;17.30;99.90;;;;;;5092540;28;20123;-74
2022/08/10 02:09:37;;;;;;;12.50;9.18;;;17.30;99.90;;;;;;5108893;28;20044;-74
2022/08/10 02:12:07;;;;;;;12.73;8.55;;;17.30;99.90;;;;;;5092336;28;20046;-74
2022/08/10 02:14:37;;;;;;;13.18;8.70;;;17.30;99.90;;;;;;5092089;28;20066;-73
2022/08/10 02:17:06;;;;;;;12.80;9.27;;;17.30;99.90;;;;;;5094288;28;20046;-73
2022/08/10 02:19:35;;;;;;;13.32;8.73;;;17.30;99.90;;;;;;5096208;28;20384;-74
2022/08/10 02:22:01;;;;;;;11.60;8.70;;;17.30;99.90;;;;;;5096104;28;20037;-74
2022/08/10 02:24:28;;;;;;;12.75;8.50;;;17.50;99.90;;;;;;5095533;28;20036;-74
2022/08/10 02:26:55;;;;;;;12.50;9.25;;;17.30;99.90;;;;;;5095868;28;20039;-73
2022/08/10 02:29:22;;;;;;;11.85;9.05;;;17.70;99.90;;;;;;5095827;28;20438;-74
2022/08/10 02:31:48;;;;;;;14.23;8.88;;;17.20;99.90;;;;;;5095512;28;20053;-74
2022/08/10 02:34:15;;;;;;;13.68;8.73;;;17.20;99.90;;;;;;5095786;28;20512;-74
2022/08/10 02:36:46;;;;;;;10.93;8.45;;;17.20;99.90;;;;;;5095569;28;20222;-74
2022/08/10 02:39:13;;;;;;;13.68;8.07;;;17.20;99.90;;;;;;5095251;28;20159;-73
2022/08/10 02:41:55;;;;;;;13.10;9.27;;;17.20;99.90;;;;;;5094431;28;20052;-74
2022/08/10 02:44:48;;;;;;;11.77;8.98;;;17.20;99.90;;;;;;5077148;28;20484;-74
2022/08/10 02:47:31;;;;;;;11.70;8.90;;;17.20;99.90;;;;;;5095686;28;20388;-73
2022/08/10 02:50:10;;;;;;;13.05;8.82;;;17.20;99.90;;;;;;5095756;28;20512;-74
2022/08/10 02:53:12;;;;;;;12.50;9.18;;;17.20;99.90;;;;;;5095237;28;20066;-73
2022/08/10 02:55:49;;;;;;;11.00;8.82;;;17.20;99.90;;;;;;5095234;28;20105;-74
2022/08/10 02:58:38;;;;;;;12.82;9.10;;;17.20;99.90;;;;;;5094786;28;20055;-74
2022/08/10 03:01:08;;;;;;;12.98;9.38;;;17.10;99.90;;;;;;5094285;28;20062;-74
2022/08/10 03:03:46;;;;;;;11.38;9.27;;;17.10;99.90;;;;;;5095255;28;20052;-74
2022/08/10 03:06:17;;;;;;;10.85;8.85;;;17.10;99.90;;;;;;5076855;28;20048;-74
2022/08/10 03:08:44;;;;;;;15.13;9.63;;;17.10;99.90;;;;;;5095284;28;20484;-74
2022/08/10 03:11:21;;;;;;;14.23;9.45;;;17.60;99.90;;;;;;5095358;28;20430;-74
2022/08/10 03:13:48;;;;;;;16.00;9.77;;;17.20;99.90;;;;;;5095224;28;20046;-74
2022/08/10 03:16:16;;;;;;;12.73;9.30;;;17.10;99.90;;;;;;5094723;28;20123;-74
2022/08/10 03:18:43;;;;;;;14.95;9.15;;;17.10;99.90;;;;;;5095111;28;20122;-73
2022/08/10 03:21:11;;;;;;;14.38;9.77;;;17.40;99.90;;;;;;5076825;28;20048;-73
2022/08/10 03:23:40;;;;;;;11.07;8.98;;;17.10;99.90;;;;;;5076604;28;20404;-74
2022/08/10 03:26:06;;;;;;;12.90;9.27;;;17.10;99.90;;;;;;5094742;28;20047;-74
2022/08/10 03:28:33;;;;;;;13.50;9.85;;;17.10;99.90;;;;;;5093859;28;20044;-74
2022/08/10 03:31:00;;;;;;;13.45;9.77;;;17.10;99.90;;;;;;5094699;28;20067;-74
2022/08/10 03:33:30;;;;;;;14.25;10.00;;;17.10;99.90;;;;;;5094711;28;20140;-74
2022/08/10 03:35:56;;;;;;;16.33;10.77;;;17.00;99.90;;;;;;5094365;28;20062;-74
2022/08/10 03:38:21;;;;;;;13.35;9.98;;;17.10;99.90;;;;;;5094903;28;20036;-74
2022/08/10 03:40:48;;;;;;;14.35;10.50;;;17.50;99.90;;;;;;5094258;28;20120;-74
2022/08/10 03:43:18;;;;;;;15.25;10.23;;;17.00;99.90;;;;;;5094218;28;20097;-74
2022/08/10 03:45:48;;;;;;;13.55;10.15;;;17.30;99.90;;;;;;5094642;28;20044;-74
2022/08/10 03:48:17;;;;;;;14.68;10.25;;;17.00;99.90;;;;;;5094733;28;20115;-74
2022/08/10 03:50:42;;;;;;;16.20;10.10;;;16.90;99.90;;;;;;5094451;28;20048;-74
2022/08/10 03:53:08;;;;;;;15.95;10.25;;;16.90;99.90;;;;;;5094056;28;20109;-74
2022/08/10 03:55:34;;;;;;;13.25;9.77;;;16.90;99.90;;;;;;5074460;28;20046;-74
2022/08/10 03:58:00;;;;;;;17.17;10.38;;;17.00;99.90;;;;;;5094636;28;20067;-74
2022/08/10 04:00:27;;;;;;;15.90;10.02;;;16.90;99.90;;;;;;5076241;28;20471;-74
2022/08/10 04:02:54;;;;;;;17.38;9.40;;;16.90;99.90;;;;;;5094024;28;20044;-74
2022/08/10 04:05:20;;;;;;;12.50;9.25;;;16.90;99.90;;;;;;5093908;28;20044;-74
2022/08/10 04:07:46;;;;;;;13.48;9.75;;;16.90;99.90;;;;;;5094078;28;20082;-74
2022/08/10 04:10:13;;;;;;;13.35;9.15;;;17.20;99.90;;;;;;5093783;28;20086;-74
2022/08/10 04:12:38;;;;;;;16.65;9.65;;;16.90;99.90;;;;;;5075503;28;20388;-74
2022/08/10 04:15:04;;;;;;;15.52;9.98;;;16.90;99.90;;;;;;5093735;28;20044;-74
2022/08/10 04:17:30;;;;;;;15.93;10.15;;;16.90;99.90;;;;;;5093963;28;20119;-74
2022/08/10 04:19:57;;;;;;;14.32;9.45;;;16.90;99.90;;;;;;5093841;28;20576;-74
2022/08/10 04:22:25;;;;;;;14.07;8.70;;;16.90;99.90;;;;;;5109622;28;20097;-74
2022/08/10 04:24:58;;;;;;;15.82;9.60;;;16.90;99.90;;;;;;5093391;28;20414;-74
2022/08/10 04:27:24;;;;;;;12.50;8.88;;;16.80;99.90;;;;;;5093406;28;20446;-74
2022/08/10 04:29:50;;;;;;;14.38;9.20;;;16.90;99.90;;;;;;5075116;28;20218;-74
2022/08/10 04:32:19;;;;;;;12.63;9.00;;;16.90;99.90;;;;;;5075047;28;20052;-74
2022/08/10 04:34:47;;;;;;;15.57;9.27;;;16.90;99.90;;;;;;5093349;28;20066;-74
2022/08/10 04:37:14;;;;;;;12.48;8.57;;;16.90;99.90;;;;;;5093367;28;20052;-74
2022/08/10 04:39:40;;;;;;;11.98;8.75;;;16.90;99.90;;;;;;5075089;28;20036;-74
2022/08/10 04:42:06;;;;;;;11.40;8.20;;;16.90;99.90;;;;;;5093508;28;20071;-75
2022/08/10 04:44:36;;;;;;;13.25;9.45;;;17.00;99.90;;;;;;5093176;28;20036;-74
2022/08/10 04:47:02;;;;;;;11.50;8.50;;;17.00;99.90;;;;;;5093278;28;20115;-74
2022/08/10 04:49:27;;;;;;;11.73;8.18;;;17.00;99.90;;;;;;5074989;28;20127;-74
2022/08/10 04:51:53;;;;;;;12.35;8.93;;;17.00;99.90;;;;;;5093206;28;20446;-75
2022/08/10 04:54:19;;;;;;;10.63;8.38;;;17.00;99.90;;;;;;5092784;28;20123;-74
2022/08/10 04:56:44;;;;;;;12.13;8.88;;;17.50;99.90;;;;;;5093055;28;20039;-74
2022/08/10 04:59:11;;;;;;;12.63;9.13;;;17.00;99.90;;;;;;5093360;28;20102;-74
2022/08/10 05:01:38;;;;;;;12.50;9.13;;;17.70;99.90;;;;;;5092629;28;20043;-75
2022/08/10 05:04:04;;;;;;;10.90;8.50;;;17.10;99.90;;;;;;5092245;28;20111;-75
2022/08/10 05:06:29;;;;;;;14.73;8.68;;;17.10;99.90;;;;;;5092826;28;20139;-74
2022/08/10 05:08:55;;;;;;;15.32;8.93;;;17.50;99.90;;;;;;5092994;28;20055;-74
2022/08/10 05:11:20;;;;;;;11.57;9.05;;;17.20;99.90;;;;;;5092680;28;20080;-74
2022/08/10 05:13:46;;;;;;;12.25;8.63;;;17.20;99.90;;;;;;5074908;28;20044;-75
2022/08/10 05:16:12;;;;;;;11.73;8.68;;;17.10;99.90;;;;;;5092714;28;20128;-74
2022/08/10 05:18:37;;;;;;;12.93;9.10;;;17.50;99.90;;;;;;5093033;28;20040;-74
2022/08/10 05:21:03;;;;;;;13.88;9.35;;;17.20;99.90;;;;;;5092929;28;20036;-74
2022/08/10 05:23:28;;;;;;;15.05;9.45;;;17.20;99.90;;;;;;5092655;28;20495;-74
2022/08/10 05:25:54;;;;;;;14.50;9.00;;;17.20;99.90;;;;;;5092630;28;20535;-74
2022/08/10 05:28:19;;;;;;;12.90;9.57;;;17.60;99.90;;;;;;5092970;28;20089;-74
2022/08/10 05:30:45;;;;;;;14.10;9.45;;;17.90;99.90;;;;;;5074782;28;20503;-74
2022/08/10 05:33:11;;;;;;;14.80;9.13;;;17.30;99.90;;;;;;5074355;28;20088;-74
2022/08/10 05:35:37;;;;;;;14.65;10.00;;;17.30;99.90;;;;;;5092480;28;20048;-74
2022/08/10 05:38:05;;;;;;;12.88;9.30;;;17.40;99.90;;;;;;5092716;28;20032;-74
2022/08/10 05:40:31;;;;;;;14.25;9.52;;;17.40;99.90;;;;;;5092271;28;20484;-74
2022/08/10 05:42:56;;;;;;;14.73;9.55;;;17.40;99.90;;;;;;5092625;28;20048;-74
2022/08/10 05:45:26;;;;;;;11.80;8.93;;;17.60;99.90;;;;;;5092464;28;20056;-74
2022/08/10 05:47:53;;;;;;;11.85;8.55;;;17.50;99.90;;;;;;5092604;28;20040;-74
2022/08/10 05:50:25;;;;;;;12.80;9.55;;;17.60;99.90;;;;;;5092369;28;20048;-74
2022/08/10 05:52:51;;;;;;;12.02;8.45;;;17.60;99.90;;;;;;5077720;28;20044;-75
2022/08/10 05:55:17;;;;;;;13.45;9.15;;;17.60;99.90;;;;;;5096131;28;20044;-74
2022/08/10 05:57:43;;;;;;;12.07;8.45;;;17.70;99.90;;;;;;5096822;28;20122;-75
2022/08/10 06:00:17;;;;;;;13.07;8.93;;;17.70;99.90;;;;;;5095059;28;20060;-75
2022/08/10 06:02:49;;;;;;;14.88;8.30;;;17.70;99.90;;;;;;5096699;28;20040;-74
2022/08/10 06:05:30;;;;;;;10.13;8.30;;;17.70;99.90;;;;;;5096187;28;20104;-75
2022/08/10 06:07:59;;;;;;;10.85;7.80;;;17.80;99.90;;;;;;5096197;28;20135;-74
2022/08/10 06:10:27;;;;;;;12.07;7.63;;;17.80;99.90;;;;;;5096204;28;20392;-74
2022/08/10 06:15:39;;;;;;;14.35;8.52;;;17.90;99.90;;;;;;5095723;28;20051;-74
2022/08/10 06:18:05;;;;;;;11.98;8.02;;;17.90;99.90;;;;;;5096102;28;20123;-74
2022/08/10 06:20:32;;;;;;;13.00;7.90;;;18.00;99.90;;;;;;5095653;28;20563;-74
2022/08/10 06:23:02;;;;;;;13.35;7.97;;;18.00;99.90;;;;;;5095691;28;20496;-74
2022/08/10 06:25:32;;;;;;;11.82;7.82;;;18.10;99.90;;;;;;5095605;28;20127;-75
2022/08/10 06:27:59;;;;;;;13.20;7.55;;;18.10;99.90;;;;;;5095644;28;20040;-75
2022/08/10 06:30:27;;;;;;;13.13;7.10;;;18.20;99.90;;;;;;5095628;28;20438;-75
2022/08/10 06:32:56;;;;;;;11.70;7.22;;;18.20;99.90;;;;;;5095425;28;20048;-74
2022/08/10 06:35:26;;;;;;;13.18;7.35;;;18.30;99.90;;;;;;5095233;28;20056;-75
2022/08/10 06:37:54;;;;;;;10.20;6.93;;;18.30;99.90;;;;;;5095720;28;20078;-75
2022/08/10 06:40:20;;;;;;;8.30;6.55;;;18.40;99.90;;;;;;5095372;28;20479;-74
2022/08/10 06:42:48;;;;;;;9.32;6.35;;;18.40;99.90;;;;;;5077483;28;20495;-75
2022/08/10 06:45:25;;;;;;;9.68;5.90;;;18.50;99.90;;;;;;5077363;28;20052;-75
2022/08/10 06:48:08;;;;;;;10.45;5.43;;;18.60;99.90;;;;;;5095235;28;20400;-75
2022/08/10 06:50:50;;;;;;;8.38;4.78;;;18.60;99.90;;;;;;5095598;28;20082;-75
2022/08/10 06:53:18;;;;;;;9.20;5.35;;;18.70;99.90;;;;;;5094986;28;20078;-75
2022/08/10 06:55:56;;;;;;;9.30;5.20;;;18.70;99.90;;;;;;5095006;28;20105;-75
2022/08/10 06:58:24;;;;;;;6.60;4.70;;;18.80;99.90;;;;;;5095149;28;20423;-75
2022/08/10 07:00:51;;;;;;;8.27;4.55;;;18.80;99.90;;;;;;5095019;28;20059;-74
2022/08/10 07:03:19;;;;;;;7.07;4.55;;;18.90;99.90;;;;;;5094920;28;20036;-74
2022/08/10 07:05:49;;;;;;;8.52;4.30;;;19.00;99.90;;;;;;5095134;28;20114;-74
2022/08/10 07:08:20;;;;;;;8.05;4.15;;;19.10;99.90;;;;;;5095094;28;20044;-75
2022/08/10 07:10:47;;;;;;;11.32;4.38;;;19.20;99.90;;;;;;5094682;28;20048;-74
2022/08/10 07:13:19;;;;;;;8.45;4.63;;;19.20;99.90;;;;;;5094950;28;20461;-74
2022/08/10 07:15:47;;;;;;;6.38;4.13;;;19.30;99.90;;;;;;5094857;28;20059;-75
2022/08/10 07:18:14;;;;;;;6.28;4.03;;;19.30;99.90;;;;;;5076633;28;20118;-75
2022/08/10 07:20:43;;;;;;;6.25;3.85;;;19.40;99.90;;;;;;5094760;28;20142;-75
2022/08/10 07:23:11;;;;;;;7.57;3.92;;;19.50;99.90;;;;;;5094765;28;20051;-75
2022/08/10 07:25:40;;;;;;;8.15;4.10;;;19.60;99.90;;;;;;5094523;28;20547;-75
2022/08/10 07:28:07;;;;;;;7.22;3.30;;;19.60;99.90;;;;;;5094761;28;20070;-74
2022/08/10 07:30:37;;;;;;;10.02;4.32;;;19.70;99.90;;;;;;5094366;28;20504;-74
2022/08/10 07:33:04;;;;;;;8.25;3.22;;;19.70;99.90;;;;;;5094468;28;20052;-74
2022/08/10 07:35:33;;;;;;;7.05;3.22;;;19.80;99.90;;;;;;5094133;28;20044;-74
2022/08/10 07:38:01;;;;;;;6.10;3.40;;;19.90;99.90;;;;;;5094333;28;20044;-74
2022/08/10 07:40:28;;;;;;;6.95;3.13;;;20.00;99.90;;;;;;5094078;28;20460;-75
2022/08/10 07:42:58;;;;;;;8.48;3.20;;;20.00;99.90;;;;;;5094198;28;20082;-74
2022/08/10 07:45:30;;;;;;;7.30;3.25;;;20.10;99.90;;;;;;5094421;28;20109;-75
2022/08/10 07:48:21;;;;;;;5.93;3.05;;;20.20;99.90;;;;;;5109286;28;20062;-74
2022/08/10 07:50:47;;;;;;;9.23;2.78;;;20.30;99.90;;;;;;5093737;28;20040;-74
2022/08/10 07:53:20;;;;;;;6.30;3.17;;;20.50;99.90;;;;;;5094010;28;20109;-74
2022/08/10 07:55:47;;;;;;;6.88;3.10;;;20.40;99.90;;;;;;5109497;28;20051;-74
2022/08/10 07:58:16;;;;;;;6.05;2.70;;;20.50;99.90;;;;;;5093983;28;20369;-74
2022/08/10 08:00:45;;;;;;;7.15;2.90;;;20.60;99.90;;;;;;5093564;28;20050;-74
2022/08/10 08:03:12;;;;;;;4.47;2.63;;;20.70;99.90;;;;;;5093526;28;20067;-74
2022/08/10 08:05:39;;;;;;;5.28;2.90;;;20.70;99.90;;;;;;5075397;28;20396;-74
2022/08/10 08:08:05;;;;;;;7.05;3.05;;;20.80;99.90;;;;;;5092561;28;20401;-74
2022/08/10 08:10:32;;;;;;;4.95;2.92;;;20.90;99.90;;;;;;5093618;28;20108;-74
2022/08/10 08:13:00;;;;;;;8.48;3.08;;;21.00;99.90;;;;;;5093646;28;20047;-74
2022/08/10 08:15:26;;;;;;;5.38;2.63;;;21.10;99.90;;;;;;5092895;28;20032;-74
2022/08/10 08:17:54;;;;;;;7.45;3.00;;;21.10;99.90;;;;;;5093638;28;20052;-75
2022/08/10 08:20:22;;;;;;;5.07;2.72;;;21.20;99.90;;;;;;5093330;28;20157;-74
2022/08/10 08:22:48;;;;;;;5.53;2.90;;;21.20;99.90;;;;;;5093470;28;20051;-75
2022/08/10 08:25:16;;;;;;;4.85;2.60;;;21.30;99.90;;;;;;5093585;28;20032;-75
2022/08/10 08:27:42;;;;;;;7.15;3.03;;;21.40;99.90;;;;;;5093427;28;20089;-76
2022/08/10 08:30:09;;;;;;;6.55;2.58;;;21.50;99.90;;;;;;5093303;28;20048;-75
2022/08/10 08:32:37;;;;;;;5.35;2.72;;;21.60;99.90;;;;;;5093018;28;20062;-76
2022/08/10 08:35:08;;;;;;;5.72;3.13;;;21.70;99.90;;;;;;5069657;28;20047;-75
2022/08/10 08:37:36;;;;;;;8.30;2.78;;;21.70;99.90;;;;;;5113643;28;20036;-75
2022/08/10 08:40:10;;;;;;;7.63;3.08;;;21.80;99.90;;;;;;5113451;28;20380;-76
2022/08/10 08:43:11;;;;;;;5.88;2.80;;;21.90;99.90;;;;;;5113458;28;20050;-76
2022/08/10 08:46:16;;;;;;;5.32;2.53;;;22.00;99.90;;;;;;5095015;28;20051;-75
2022/08/10 08:49:10;;;;;;;6.43;2.75;;;22.10;99.90;;;;;;5095381;28;20044;-75
2022/08/10 08:52:12;;;;;;;5.63;2.60;;;22.20;99.90;;;;;;5113164;28;20043;-76
2022/08/10 08:54:58;;;;;;;5.45;2.50;;;22.30;99.90;;;;;;5094894;28;20058;-76
2022/08/10 08:57:52;;;;;;;4.20;2.42;;;22.50;99.90;;;;;;5113459;28;20047;-76
2022/08/10 09:00:25;;;;;;;6.95;3.40;;;22.70;99.90;;;;;;5113440;28;20105;-75
2022/08/10 09:03:16;;;;;;;5.38;2.80;;;22.80;99.90;;;;;;5108981;28;20083;-76
2022/08/10 09:05:50;;;;;;;7.00;2.80;;;22.90;99.90;;;;;;5092814;28;20122;-76
2022/08/10 09:08:31;;;;;;;7.95;2.95;;;22.90;99.90;;;;;;5092988;28;20039;-75
2022/08/10 09:11:12;;;;;;;9.00;2.58;;;23.00;99.90;;;;;;5074516;28;20055;-76
2022/08/10 09:14:01;;;;;;;8.82;2.60;;;23.10;99.90;;;;;;5092817;28;20047;-76
2022/08/10 09:16:58;;;;;;;7.20;2.58;;;23.30;99.90;;;;;;5063227;28;20100;-76
2022/08/10 09:19:26;;;;;;;6.18;2.60;;;23.50;99.90;;;;;;5092466;28;20511;-76
2022/08/10 09:22:23;;;;;;;5.88;2.40;;;23.60;99.90;;;;;;5092714;28;20043;-76
2022/08/10 09:25:19;;;;;;;9.15;2.50;;;23.80;99.90;;;;;;5108649;28;20052;-76
2022/08/10 09:27:47;;;;;;;6.05;2.22;;;23.90;99.90;;;;;;5091726;28;20059;-76
2022/08/10 09:30:24;;;;;;;6.10;2.38;;;24.10;99.90;;;;;;5096851;28;20036;-76
2022/08/10 09:32:56;;;;;;;6.35;2.10;;;24.30;99.90;;;;;;5078354;28;20498;-76
2022/08/10 09:35:59;;;;;;;6.55;2.42;;;24.50;99.90;;;;;;5096650;28;20128;-76
2022/08/10 09:38:52;;;;;;;4.90;2.28;;;24.60;99.90;;;;;;5096591;28;20083;-76
2022/08/10 09:41:53;;;;;;;8.35;2.45;;;24.70;99.90;;;;;;5078323;28;20052;-76
2022/08/10 09:44:54;;;;;;;5.45;2.20;;;25.00;99.90;;;;;;5096138;28;20052;-76
2022/08/10 09:47:26;;;;;;;6.10;2.40;;;25.30;99.90;;;;;;5096315;28;20036;-76
2022/08/10 09:50:15;;;;;;;4.28;2.67;;;25.50;99.90;;;;;;5078531;28;20040;-76
2022/08/10 09:53:02;;;;;;;5.50;1.90;;;26.00;99.90;;;;;;5095850;28;20040;-76
2022/08/10 09:55:55;;;;;;;4.68;2.20;;;26.80;99.90;;;;;;5095697;28;20505;-76
2022/08/10 09:58:46;;;;;;;5.35;2.15;;;28.40;99.90;;;;;;5095987;28;20044;-76
2022/08/10 10:01:24;;;;;;;4.05;1.77;;;30.80;97.80;;;;;;5096046;28;20146;-76
2022/08/10 10:04:14;;;;;;;3.53;1.88;;;33.40;92.70;;;;;;5095973;28;20080;-76
2022/08/10 10:06:52;;;;;;;5.25;1.83;;;36.00;90.40;;;;;;5078010;28;20093;-76
2022/08/10 10:09:27;;;;;;;5.20;1.90;;;38.30;88.60;;;;;;5095777;28;20070;-76
2022/08/10 10:12:10;;;;;;;4.60;1.95;;;40.20;83.60;;;;;;5096296;28;20044;-75
2022/08/10 10:17:52;;;;;;;3.15;1.50;;;43.10;72.70;;;;;;5095834;28;20052;-75
2022/08/10 10:20:24;;;;;;;4.68;1.77;;;44.60;72.80;;;;;;5095643;28;20047;-75
2022/08/10 10:23:33;;;;;;;6.82;1.60;;;45.80;71.30;;;;;;5095842;28;20377;-75
2022/08/10 10:26:07;;;;;;;4.78;1.60;;;46.80;65.40;;;;;;5056912;28;20056;-75
2022/08/10 10:29:05;;;;;;;5.88;1.80;;;47.70;63.50;;;;;;5094135;28;20055;-76
2022/08/10 10:31:56;;;;;;;5.90;1.73;;;47.70;57.60;;;;;;5063703;28;20106;-75
2022/08/10 10:34:56;;;;;;;5.00;1.40;;;47.20;59.50;;;;;;5095195;28;20117;-75
2022/08/10 10:37:23;;;;;;;4.18;1.40;;;48.20;57.20;;;;;;5094158;28;20059;-75
2022/08/10 10:39:53;;;;;;;4.18;1.38;;;48.10;57.00;;;;;;5095046;28;20128;-75
2022/08/10 10:42:47;;;;;;;4.75;1.20;;;48.80;57.20;;;;;;5095116;28;20056;-75
2022/08/10 10:46:00;;;;;;;4.10;1.30;;;49.50;55.00;;;;;;5095041;28;20043;-75
2022/08/10 10:48:40;;;;;;;3.60;1.38;;;49.40;53.50;;;;;;5091497;28;20105;-75
2022/08/10 10:51:26;;;;;;;4.35;1.30;;;49.10;53.50;;;;;;5094819;28;20081;-75
2022/08/10 10:54:06;;;;;;;4.03;1.27;;;49.20;54.20;;;;;;5095293;28;20044;-76
2022/08/10 10:56:47;;;;;;;1.63;1.10;;;49.10;53.50;;;;;;5094506;28;20519;-75
2022/08/10 10:59:20;;;;;;;4.95;1.15;;;48.70;52.10;;;;;;5094718;28;20040;-75
2022/08/10 11:01:58;;;;;;;3.20;1.23;;;48.90;53.00;;;;;;5094940;28;20436;-75
2022/08/10 11:04:35;;;;;;;3.80;1.30;;;48.10;51.40;;;;;;5094805;28;20048;-75
2022/08/10 11:07:14;;;;;;;3.03;1.17;;;46.90;52.70;;;;;;5094701;28;20040;-75
2022/08/10 11:09:55;;;;;;;2.17;1.10;;;46.10;53.40;;;;;;5094586;28;20407;-75
2022/08/10 11:12:30;;;;;;;1.33;1.00;;;45.10;53.00;;;;;;5076178;28;20048;-75
2022/08/10 11:15:12;;;;;;;4.88;1.20;;;44.20;53.20;;;;;;5094758;28;20062;-75
2022/08/10 11:17:53;;;;;;;3.80;1.10;;;43.90;53.00;;;;;;5094284;28;20096;-75
2022/08/10 11:20:37;;;;;;;2.20;1.10;;;44.00;53.20;;;;;;5094339;28;20034;-75
2022/08/10 11:23:27;;;;;;;2.05;1.13;;;45.10;54.20;;;;;;5094483;28;20044;-75
2022/08/10 11:26:25;;;;;;;2.45;1.00;;;47.00;53.70;;;;;;5092276;28;20044;-75
2022/08/10 11:28:59;;;;;;;2.80;1.10;;;49.30;52.70;;;;;;5082037;28;20060;-74
2022/08/10 11:31:34;;;;;;;3.25;1.35;;;51.70;51.20;;;;;;5093933;28;20055;-75
2022/08/10 11:34:05;;;;;;;3.33;1.25;;;53.60;49.80;;;;;;5094528;28;20040;-75
2022/08/10 11:37:00;;;;;;;2.10;1.10;;;54.40;49.90;;;;;;5094115;28;20112;-74
2022/08/10 11:39:54;;;;;;;2.60;1.00;;;55.30;48.40;;;;;;5053021;28;20559;-75
2022/08/10 11:43:04;;;;;;;3.38;1.30;;;56.00;48.20;;;;;;5094650;28;20044;-75
2022/08/10 11:45:36;;;;;;;3.55;1.40;;;56.90;48.30;;;;;;5076076;28;20127;-75
2022/08/10 11:48:07;;;;;;;2.00;1.10;;;57.10;46.90;;;;;;5094095;28;20048;-76
2022/08/10 11:50:47;;;;;;;4.15;1.30;;;56.20;45.00;;;;;;5093778;28;20036;-75
2022/08/10 11:53:49;;;;;;;3.17;1.20;;;55.10;45.90;;;;;;5094037;28;20051;-76
2022/08/10 11:56:27;;;;;;;3.35;1.00;;;55.30;45.80;;;;;;5082258;28;20148;-76
2022/08/10 12:01:40;;;;;;;3.70;1.30;;;55.50;45.20;;;;;;5093926;28;20122;-76
2022/08/10 12:04:07;;;;;;;2.72;1.00;;;52.70;44.30;;;;;;5093767;28;20040;-76
2022/08/10 12:06:35;;;;;;;2.70;1.10;;;52.20;45.10;;;;;;5094022;28;20492;-76
2022/08/10 12:09:04;;;;;;;2.80;1.15;;;53.30;45.60;;;;;;5093654;28;20036;-76
2022/08/10 12:11:30;;;;;;;2.63;1.00;;;53.20;44.80;;;;;;5075902;28;20036;-76
2022/08/10 12:14:07;;;;;;;2.95;1.10;;;53.80;45.00;;;;;;5093953;28;20115;-76
2022/08/10 12:16:38;;;;;;;5.10;1.63;;;54.20;45.50;;;;;;5075202;28;20124;-75
2022/08/10 12:19:29;;;;;;;4.40;1.27;;;54.40;45.30;;;;;;5093721;28;20032;-76
2022/08/10 12:22:07;;;;;;;3.88;1.10;;;54.90;44.90;;;;;;5082273;28;20131;-76
2022/08/10 12:24:55;;;;;;;3.05;1.17;;;54.70;44.20;;;;;;5093561;28;20044;-76
2022/08/10 12:27:29;;;;;;;4.80;1.20;;;54.10;44.20;;;;;;5093744;28;20388;-75
2022/08/10 12:30:13;;;;;;;2.15;1.20;;;52.20;43.90;;;;;;5093457;28;20523;-75
2022/08/10 12:33:17;;;;;;;1.92;0.93;;;50.30;44.30;;;;;;5074920;28;20174;-75
2022/08/10 12:36:01;;;;;;;4.07;1.20;;;47.90;45.00;;;;;;5092895;28;20126;-75
2022/08/10 12:39:14;;;;;;;3.85;1.20;;;45.70;45.80;;;;;;5093127;28;20052;-75
2022/08/10 12:42:09;;;;;;;2.25;1.00;;;41.90;46.70;;;;;;4994363;28;20054;-74
2022/08/10 12:44:43;;;;;;;3.03;1.10;;;40.60;48.40;;;;;;4994677;28;20101;-74
2022/08/10 12:47:15;;;;;;;3.03;1.30;;;39.10;49.70;;;;;;5057215;28;20047;-74
2022/08/10 12:50:06;;;;;;;2.00;1.10;;;38.60;50.40;;;;;;5093220;28;20059;-75
2022/08/10 12:52:41;;;;;;;3.42;1.10;;;37.20;50.70;;;;;;5092956;28;20123;-75
2022/08/10 12:55:10;;;;;;;4.43;1.30;;;35.90;53.00;;;;;;5092788;28;20381;-75
2022/08/10 12:57:37;;;;;;;3.25;1.20;;;34.90;54.10;;;;;;5093043;28;20092;-75
2022/08/10 13:00:05;;;;;;;3.95;1.30;;;34.70;53.90;;;;;;5092529;28;20055;-75
2022/08/10 13:02:36;;;;;;;2.35;1.50;;;34.50;54.50;;;;;;5091916;28;20048;-75
2022/08/10 13:05:06;;;;;;;2.88;1.38;;;33.80;55.30;;;;;;5092840;28;20043;-75
2022/08/10 13:07:34;;;;;;;4.18;1.40;;;33.70;55.60;;;;;;5075017;28;20055;-75
2022/08/10 13:10:13;;;;;;;3.35;1.20;;;33.60;56.50;;;;;;5092867;28;20040;-75
2022/08/10 13:12:42;;;;;;;2.03;1.30;;;33.30;56.60;;;;;;5091836;28;20036;-75
2022/08/10 13:15:17;;;;;;;4.15;1.33;;;33.00;56.80;;;;;;5092859;28;20040;-75
2022/08/10 13:17:48;;;;;;;2.50;1.40;;;32.90;57.20;;;;;;5092888;28;20048;-75
2022/08/10 13:20:34;;;;;;;3.08;1.20;;;32.40;58.50;;;;;;5092580;28;20036;-75
2022/08/10 13:23:10;;;;;;;5.28;1.38;;;32.10;59.00;;;;;;5092379;28;20048;-76